Date,TemperatureHighF,TemperatureAvgF,TemperatureLowF,DewpointHighF,DewpointAvgF,DewpointLowF,HumidityHigh,HumidityAvg,HumidityLow,PressureMaxIn,PressureMinIn,WindSpeedMaxMPH,WindSpeedAvgMPH,GustSpeedMaxMPH,PrecipitationSumIn
2013-1-1,25.0,18.9,4.0,23.0,15.7,1.0,92,87,81,30.25,30.11,2,0,5,0.02
2013-1-2,22.0,11.3,1.0,13.0,5.7,-2.0,91,78,62,30.32,30.24,7,2,13,0.00
2013-1-3,31.0,22.0,15.0,28.0,17.9,10.0,90,84,73,30.36,30.22,11,5,18,0.00
2013-1-4,31.0,20.8,11.0,26.0,16.8,8.0,90,85,79,30.38,30.31,11,6,22,0.00
2013-1-5,34.0,27.6,19.0,31.0,24.3,17.0,93,87,80,30.34,30.10,8,3,14,0.00
2013-1-6,35.0,27.1,15.0,32.0,24.0,13.0,94,88,83,30.40,30.01,17,7,23,0.00
2013-1-7,35.0,24.1,14.0,28.0,20.6,12.0,94,87,75,30.45,30.22,10,4,18,0.00
2013-1-8,41.0,32.3,27.0,32.0,27.3,23.0,88,82,68,30.27,30.16,7,3,13,0.00
2013-1-9,48.0,39.2,30.0,39.0,33.1,25.0,85,79,67,30.53,30.13,12,6,19,0.00
2013-1-10,43.0,35.2,28.0,41.0,29.7,24.0,97,81,70,30.54,29.99,11,4,19,0.36
2013-1-11,55.0,51.0,42.0,53.0,48.5,41.0,97,91,83,30.00,29.75,11,6,19,0.51
2013-1-12,58.0,48.9,36.0,52.0,45.2,33.0,95,87,77,29.95,29.80,11,6,20,0.45
2013-1-13,35.0,27.5,16.0,33.0,25.9,11.0,96,93,84,30.29,29.83,14,6,20,0.60
2013-1-14,22.0,16.9,13.0,18.0,13.4,10.0,92,86,81,30.54,30.29,0,0,0,0.01
2013-1-15,28.0,21.2,14.0,23.0,17.6,12.0,93,86,75,30.49,30.19,0,0,0,0.00
2013-1-16,36.0,27.6,18.0,28.0,22.9,16.0,93,83,64,30.19,29.97,0,0,0,0.01
2013-1-17,34.0,28.8,18.0,29.0,22.9,15.0,93,79,58,30.46,30.10,0,0,0,0.01
2013-1-18,38.0,28.2,17.0,29.0,22.4,14.0,91,79,63,30.50,30.09,0,0,0,0.02
2013-1-19,50.0,40.4,35.0,38.0,33.1,29.0,85,75,63,30.09,29.84,12,3,20,0.01
2013-1-20,38.0,22.6,16.0,33.0,14.0,8.0,84,69,58,30.32,29.92,24,11,34,0.01
2013-1-21,18.0,12.6,6.0,12.0,4.8,-2.0,86,71,52,30.37,30.22,20,12,27,0.00
2013-1-22,15.0,8.0,2.0,2.0,-0.3,-2.0,84,70,48,30.48,30.36,13,8,20,0.00
2013-1-23,23.0,16.8,9.0,16.0,7.8,2.0,85,67,53,30.43,30.17,12,3,17,0.00
2013-1-24,23.0,16.2,7.0,15.0,6.4,2.0,86,66,43,30.67,30.27,12,4,22,0.00
2013-1-25,29.0,22.9,18.0,22.0,15.9,8.0,88,75,56,30.44,30.06,12,4,17,0.00
2013-1-26,32.0,22.4,11.0,19.0,14.9,8.0,90,74,47,30.46,30.16,4,1,8,0.00
2013-1-27,37.0,28.4,22.0,34.0,23.7,17.0,96,82,72,30.45,30.03,8,3,15,0.04
2013-1-28,51.0,47.4,36.0,50.0,46.4,35.0,98,96,94,30.04,29.91,10,5,21,0.07
2013-1-29,60.0,56.1,50.0,57.0,54.7,49.0,98,95,89,29.91,29.38,12,8,22,0.64
2013-1-30,52.0,42.0,23.0,51.0,40.4,20.0,98,95,87,29.65,29.25,24,10,33,0.97
2013-1-31,23.0,17.1,8.0,20.0,12.3,3.0,90,81,75,30.20,29.65,21,11,31,0.01